createdAt,value
2019-06-15T00:00:05.188Z,64.54
2019-06-15T00:01:07.390Z,64.53
2019-06-15T00:02:09.989Z,64.53
2019-06-15T00:03:12.190Z,64.48
2019-06-15T00:04:14.835Z,64.50
2019-06-15T00:05:17.035Z,64.51
2019-06-15T00:06:19.669Z,64.48
2019-06-15T00:07:21.865Z,64.43
2019-06-15T00:08:24.473Z,64.46
2019-06-15T00:09:26.714Z,64.47
2019-06-15T00:10:29.327Z,64.43
2019-06-15T00:11:31.553Z,64.43
2019-06-15T00:12:34.173Z,64.40
2019-06-15T00:13:36.398Z,64.42
2019-06-15T00:14:39.043Z,64.43
2019-06-15T00:15:41.263Z,64.43
2019-06-15T00:16:43.875Z,64.40
2019-06-15T00:17:46.127Z,64.39
2019-06-15T00:18:48.824Z,64.41
2019-06-15T00:19:51.074Z,64.39
2019-06-15T00:20:53.701Z,64.36
2019-06-15T00:21:55.927Z,64.37
2019-06-15T00:22:58.536Z,64.37
2019-06-15T00:24:00.756Z,64.35
2019-06-15T00:25:03.365Z,64.34
2019-06-15T00:26:05.570Z,64.35
2019-06-15T00:27:08.176Z,64.35
2019-06-15T00:28:10.380Z,64.31
2019-06-15T00:29:12.997Z,64.30
2019-06-15T00:30:15.259Z,64.28
2019-06-15T00:31:17.880Z,64.28
2019-06-15T00:32:20.089Z,64.29
2019-06-15T00:33:22.699Z,64.25
2019-06-15T00:34:24.913Z,64.28
2019-06-15T00:35:27.586Z,64.26
2019-06-15T00:36:29.790Z,64.29
2019-06-15T00:37:32.381Z,64.25
2019-06-15T00:38:34.636Z,64.23
2019-06-15T00:39:37.291Z,64.23
2019-06-15T00:40:39.596Z,64.20
2019-06-15T00:41:42.137Z,64.18
2019-06-15T00:42:44.370Z,64.18
2019-06-15T00:43:46.962Z,64.16
2019-06-15T00:44:49.174Z,64.16
2019-06-15T00:45:51.777Z,64.16
2019-06-15T00:46:53.991Z,64.14
2019-06-15T00:47:56.634Z,64.17
2019-06-15T00:48:58.829Z,64.16
2019-06-15T00:50:01.438Z,64.22
2019-06-15T00:51:03.651Z,64.11
2019-06-15T00:52:06.247Z,64.14
2019-06-15T00:53:08.479Z,64.16
2019-06-15T00:54:11.081Z,64.16
2019-06-15T00:55:13.254Z,64.18
2019-06-15T00:56:15.860Z,64.18
2019-06-15T00:57:18.181Z,64.21
2019-06-15T00:58:20.776Z,64.21
2019-06-15T00:59:22.985Z,64.22
2019-06-15T01:00:25.590Z,64.20
2019-06-15T01:01:27.813Z,64.21
2019-06-15T01:02:30.429Z,64.20
2019-06-15T01:03:32.637Z,64.21
2019-06-15T01:04:35.263Z,64.17
2019-06-15T01:05:39.082Z,64.15
2019-06-15T01:06:41.704Z,64.15
2019-06-15T01:07:43.911Z,64.17
2019-06-15T01:08:46.535Z,64.17
2019-06-15T01:09:48.739Z,64.14
2019-06-15T01:10:51.358Z,64.15
2019-06-15T01:11:53.580Z,64.11
2019-06-15T01:12:56.202Z,64.11
2019-06-15T01:13:58.480Z,64.12
2019-06-15T01:15:01.104Z,64.10
2019-06-15T01:16:04.530Z,64.11
2019-06-15T01:17:07.082Z,64.09
2019-06-15T01:18:09.297Z,64.08
2019-06-15T01:19:11.915Z,64.10
2019-06-15T01:20:14.159Z,64.08
2019-06-15T01:21:16.778Z,64.08
2019-06-15T01:22:18.982Z,64.08
2019-06-15T01:23:21.576Z,64.06
2019-06-15T01:24:23.823Z,64.06
2019-06-15T01:25:26.429Z,64.04
2019-06-15T01:26:28.630Z,64.04
2019-06-15T01:27:31.239Z,64.02
2019-06-15T01:28:33.458Z,64.01
2019-06-15T01:29:36.072Z,64.00
2019-06-15T01:30:38.297Z,64.01
2019-06-15T01:31:41.025Z,64.01
2019-06-15T01:32:43.234Z,64.00
2019-06-15T01:33:45.863Z,63.99
2019-06-15T01:34:48.083Z,63.99
2019-06-15T01:35:50.786Z,63.98
2019-06-15T01:36:52.985Z,64.00
2019-06-15T01:37:55.586Z,63.98
2019-06-15T01:38:59.392Z,63.99
2019-06-15T01:40:02.032Z,63.96
2019-06-15T01:41:05.228Z,63.96
2019-06-15T01:42:07.828Z,63.96
2019-06-15T01:43:10.041Z,63.96
2019-06-15T01:44:12.674Z,63.96
2019-06-15T01:45:14.916Z,63.93
2019-06-15T01:46:17.516Z,63.93
2019-06-15T01:47:19.729Z,63.91
2019-06-15T01:48:22.349Z,63.91
2019-06-15T01:49:24.584Z,63.93
2019-06-15T01:50:27.194Z,63.92
2019-06-15T01:51:29.406Z,63.93
2019-06-15T01:52:32.022Z,63.91
2019-06-15T01:53:34.226Z,63.89
2019-06-15T01:54:36.829Z,63.90
2019-06-15T01:55:39.084Z,63.89
2019-06-15T01:56:42.874Z,63.88
2019-06-15T01:57:45.094Z,63.87
2019-06-15T01:58:47.692Z,63.90
2019-06-15T01:59:49.914Z,63.88
2019-06-15T02:00:52.550Z,63.89
2019-06-15T02:01:54.773Z,63.87
2019-06-15T02:02:57.379Z,63.85
2019-06-15T02:03:59.593Z,63.87
2019-06-15T02:05:02.204Z,63.84
2019-06-15T02:06:04.453Z,63.83
2019-06-15T02:07:07.060Z,63.84
2019-06-15T02:08:09.283Z,63.86
2019-06-15T02:09:11.883Z,63.84
2019-06-15T02:10:15.907Z,63.83
2019-06-15T02:11:18.534Z,63.83
2019-06-15T02:12:20.776Z,63.82
2019-06-15T02:13:23.478Z,63.81
2019-06-15T02:14:25.688Z,63.80
2019-06-15T02:15:28.291Z,63.79
2019-06-15T02:16:30.532Z,63.75
2019-06-15T02:17:33.143Z,63.73
2019-06-15T02:18:35.348Z,63.71
2019-06-15T02:19:37.959Z,63.69
2019-06-15T02:20:40.166Z,63.68
2019-06-15T02:21:42.794Z,63.67
2019-06-15T02:22:45.015Z,63.63
2019-06-15T02:23:47.621Z,63.63
2019-06-15T02:24:49.841Z,63.64
2019-06-15T02:25:52.456Z,63.65
2019-06-15T02:26:54.696Z,63.67
2019-06-15T02:27:58.488Z,63.61
2019-06-15T02:29:00.692Z,63.61
2019-06-15T02:30:03.305Z,63.61
2019-06-15T02:31:05.535Z,63.62
2019-06-15T02:32:08.169Z,63.60
2019-06-15T02:33:10.377Z,63.61
2019-06-15T02:34:12.990Z,63.61
2019-06-15T02:35:15.208Z,63.57
2019-06-15T02:36:17.807Z,63.59
2019-06-15T02:37:20.022Z,63.60
2019-06-15T02:38:22.646Z,63.62
2019-06-15T02:39:24.843Z,63.61
2019-06-15T02:40:27.462Z,63.62
2019-06-15T02:41:29.656Z,63.62
2019-06-15T02:42:32.296Z,63.62
2019-06-15T02:43:34.513Z,63.62
2019-06-15T02:44:38.153Z,63.62
2019-06-15T02:45:40.365Z,63.63
2019-06-15T02:46:42.964Z,63.59
2019-06-15T02:47:45.204Z,63.59
2019-06-15T02:48:48.828Z,63.58
2019-06-15T02:49:51.038Z,63.58
2019-06-15T02:50:53.631Z,63.57
2019-06-15T02:51:55.847Z,63.59
2019-06-15T02:52:58.461Z,63.60
2019-06-15T02:54:00.668Z,63.58
2019-06-15T02:55:03.326Z,63.54
2019-06-15T02:56:05.603Z,63.54
2019-06-15T02:57:08.199Z,63.52
2019-06-15T02:58:10.407Z,63.52
2019-06-15T02:59:13.023Z,63.54
2019-06-15T03:00:15.255Z,63.51
2019-06-15T03:01:17.859Z,63.52
2019-06-15T03:02:20.066Z,63.60
2019-06-15T03:03:22.726Z,63.64
2019-06-15T03:04:24.931Z,63.59
2019-06-15T03:05:27.549Z,63.56
2019-06-15T03:06:29.759Z,63.49
2019-06-15T03:07:32.369Z,63.49
2019-06-15T03:08:34.833Z,63.49
2019-06-15T03:09:37.422Z,63.51
2019-06-15T03:10:39.655Z,63.53
2019-06-15T03:11:42.259Z,63.50
2019-06-15T03:12:44.471Z,63.50
2019-06-15T03:13:47.081Z,63.49
2019-06-15T03:14:49.329Z,63.51
2019-06-15T03:15:51.958Z,63.48
2019-06-15T03:16:54.175Z,63.50
2019-06-15T03:17:56.785Z,63.53
2019-06-15T03:18:58.979Z,63.50
2019-06-15T03:20:01.611Z,63.49
2019-06-15T03:21:03.838Z,63.48
2019-06-15T03:22:06.654Z,63.48
2019-06-15T03:23:08.961Z,63.49
2019-06-15T03:24:11.559Z,63.45
2019-06-15T03:25:15.583Z,63.48
2019-06-15T03:26:18.220Z,63.44
2019-06-15T03:27:20.437Z,63.44
2019-06-15T03:28:23.055Z,63.41
2019-06-15T03:29:25.277Z,63.43
2019-06-15T03:30:27.873Z,63.44
2019-06-15T03:31:30.104Z,63.42
2019-06-15T03:32:32.712Z,63.43
2019-06-15T03:33:34.909Z,63.43
2019-06-15T03:34:37.550Z,63.44
2019-06-15T03:35:39.748Z,63.41
2019-06-15T03:36:42.365Z,63.41
2019-06-15T03:37:44.575Z,63.43
2019-06-15T03:38:48.361Z,63.42
2019-06-15T03:39:50.579Z,63.41
2019-06-15T03:40:53.194Z,63.38
2019-06-15T03:41:55.416Z,63.40
2019-06-15T03:42:58.011Z,63.40
2019-06-15T03:44:00.215Z,63.38
2019-06-15T03:45:02.851Z,63.39
2019-06-15T03:46:05.073Z,63.41
2019-06-15T03:47:08.875Z,63.41
2019-06-15T03:48:11.210Z,63.39
2019-06-15T03:49:13.798Z,63.40
2019-06-15T03:50:16.022Z,63.36
2019-06-15T03:51:18.647Z,63.37
2019-06-15T03:52:20.855Z,63.40
2019-06-15T03:53:23.465Z,63.33
2019-06-15T03:54:25.675Z,63.32
2019-06-15T03:55:28.302Z,63.32
2019-06-15T03:56:30.550Z,63.33
2019-06-15T03:57:33.152Z,63.30
2019-06-15T03:58:35.365Z,63.32
2019-06-15T03:59:37.978Z,63.28
2019-06-15T04:00:40.235Z,63.30
2019-06-15T04:01:42.825Z,63.33
2019-06-15T04:02:45.069Z,63.30
2019-06-15T04:03:47.686Z,63.31
2019-06-15T04:04:52.320Z,63.30
2019-06-15T04:05:54.196Z,63.32
2019-06-15T04:06:56.439Z,63.26
2019-06-15T04:07:59.061Z,63.25
2019-06-15T04:09:01.282Z,63.29
2019-06-15T04:10:03.896Z,63.25
2019-06-15T04:11:06.124Z,63.29
2019-06-15T04:12:08.787Z,63.29
2019-06-15T04:13:11.000Z,63.25
2019-06-15T04:14:13.601Z,63.22
2019-06-15T04:15:15.812Z,63.28
2019-06-15T04:16:18.449Z,63.22
2019-06-15T04:17:20.794Z,63.24
2019-06-15T04:18:23.367Z,63.24
2019-06-15T04:19:25.584Z,63.21
2019-06-15T04:20:28.174Z,63.23
2019-06-15T04:21:30.420Z,63.22
2019-06-15T04:22:33.027Z,63.22
2019-06-15T04:23:35.232Z,63.25
2019-06-15T04:24:37.860Z,63.25
2019-06-15T04:25:40.090Z,63.20
2019-06-15T04:26:42.694Z,63.20
2019-06-15T04:27:44.911Z,63.19
2019-06-15T04:28:49.467Z,63.18
2019-06-15T04:29:51.375Z,63.19
2019-06-15T04:30:53.984Z,63.19
2019-06-15T04:31:56.198Z,63.18
2019-06-15T04:32:58.817Z,63.19
2019-06-15T04:34:01.031Z,63.18
2019-06-15T04:35:03.638Z,63.17
2019-06-15T04:36:05.849Z,63.16
2019-06-15T04:37:08.466Z,63.17
2019-06-15T04:38:10.742Z,63.19
2019-06-15T04:39:13.328Z,63.17
2019-06-15T04:40:15.543Z,63.20
2019-06-15T04:41:18.129Z,63.17
2019-06-15T04:42:20.377Z,63.15
2019-06-15T04:43:22.984Z,63.15
2019-06-15T04:44:25.184Z,63.18
2019-06-15T04:45:27.782Z,63.21
2019-06-15T04:46:32.069Z,63.19
2019-06-15T04:47:34.250Z,63.16
2019-06-15T04:48:36.449Z,63.13
2019-06-15T04:49:39.040Z,63.18
2019-06-15T04:50:41.248Z,63.19
2019-06-15T04:51:43.879Z,63.16
2019-06-15T04:52:46.078Z,63.13
2019-06-15T04:53:48.666Z,63.17
2019-06-15T04:54:50.871Z,63.21
2019-06-15T04:55:53.486Z,63.24
2019-06-15T04:56:55.695Z,63.16
2019-06-15T04:57:58.283Z,63.14
2019-06-15T04:59:00.524Z,63.15
2019-06-15T05:00:03.113Z,63.19
2019-06-15T05:01:05.292Z,63.22
2019-06-15T05:02:07.894Z,63.26
2019-06-15T05:03:10.342Z,63.24
2019-06-15T05:04:12.955Z,63.24
2019-06-15T05:05:15.156Z,63.21
2019-06-15T05:06:17.748Z,63.26
2019-06-15T05:07:19.999Z,63.26
2019-06-15T05:08:22.558Z,63.22
2019-06-15T05:09:24.770Z,63.88
2019-06-15T05:10:27.368Z,64.58
2019-06-15T05:11:29.585Z,64.32
2019-06-15T05:12:32.219Z,64.47
2019-06-15T05:13:34.443Z,64.47
2019-06-15T05:14:37.056Z,65.00
2019-06-15T05:15:39.300Z,64.68
2019-06-15T05:16:41.908Z,65.15
2019-06-15T05:17:46.215Z,65.29
2019-06-15T05:18:48.368Z,64.79
2019-06-15T05:19:50.648Z,64.34
2019-06-15T05:20:53.243Z,64.32
2019-06-15T05:21:55.457Z,64.14
2019-06-15T05:22:58.034Z,64.22
2019-06-15T05:24:00.187Z,64.24
2019-06-15T05:25:02.810Z,64.22
2019-06-15T05:26:05.026Z,64.11
2019-06-15T05:27:07.609Z,64.13
2019-06-15T05:28:09.815Z,64.16
2019-06-15T05:29:12.415Z,64.11
2019-06-15T05:30:14.614Z,64.11
2019-06-15T05:31:17.211Z,64.05
2019-06-15T05:32:19.423Z,63.96
2019-06-15T05:33:22.015Z,63.96
2019-06-15T05:34:24.233Z,63.94
2019-06-15T05:35:26.869Z,63.95
2019-06-15T05:36:29.089Z,63.96
2019-06-15T05:37:31.686Z,63.96
2019-06-15T05:38:33.887Z,64.00
2019-06-15T05:39:36.477Z,63.95
2019-06-15T05:40:38.723Z,64.34
2019-06-15T05:41:41.328Z,64.29
2019-06-15T05:42:43.532Z,64.73
2019-06-15T05:43:46.137Z,64.45
2019-06-15T05:44:48.334Z,64.35
2019-06-15T05:45:50.986Z,64.34
2019-06-15T05:46:53.197Z,64.46
2019-06-15T05:47:55.786Z,64.55
2019-06-15T05:48:57.995Z,64.45
2019-06-15T05:50:00.585Z,64.45
2019-06-15T05:51:02.825Z,64.42
2019-06-15T05:52:05.421Z,64.37
2019-06-15T05:53:07.625Z,64.34
2019-06-15T05:54:10.213Z,64.25
2019-06-15T05:55:12.425Z,64.26
2019-06-15T05:56:15.089Z,64.35
2019-06-15T05:57:21.526Z,64.26
2019-06-15T05:58:21.701Z,64.38
2019-06-15T05:59:23.898Z,64.46
2019-06-15T06:00:26.530Z,64.68
2019-06-15T06:01:28.729Z,64.81
2019-06-15T06:02:31.371Z,64.74
2019-06-15T06:03:33.575Z,64.69
2019-06-15T06:04:36.509Z,65.52
2019-06-15T06:05:38.742Z,65.06
2019-06-15T06:06:41.333Z,65.19
2019-06-15T06:07:43.538Z,65.56
2019-06-15T06:08:46.143Z,65.16
2019-06-15T06:09:48.329Z,65.31
2019-06-15T06:10:50.937Z,65.08
2019-06-15T06:11:53.164Z,65.91
2019-06-15T06:12:55.788Z,66.36
2019-06-15T06:13:58.026Z,65.84
2019-06-15T06:15:00.605Z,66.13
2019-06-15T06:16:02.831Z,65.74
2019-06-15T06:17:05.412Z,65.45
2019-06-15T06:18:07.651Z,65.40
2019-06-15T06:19:10.246Z,65.81
2019-06-15T06:20:12.465Z,65.89
2019-06-15T06:21:15.057Z,66.23
2019-06-15T06:22:17.247Z,66.18
2019-06-15T06:23:19.887Z,66.68
2019-06-15T06:24:22.089Z,67.04
2019-06-15T06:25:24.800Z,67.57
2019-06-15T06:26:26.987Z,68.32
2019-06-15T06:27:36.422Z,68.09
2019-06-15T06:28:33.469Z,67.70
2019-06-15T06:29:36.063Z,67.67
2019-06-15T06:30:38.282Z,68.14
2019-06-15T06:31:40.869Z,66.90
2019-06-15T06:32:43.095Z,66.52
2019-06-15T06:33:45.680Z,66.14
2019-06-15T06:34:47.894Z,65.96
2019-06-15T06:35:50.505Z,66.21
2019-06-15T06:36:52.728Z,66.17
2019-06-15T06:37:55.331Z,66.05
2019-06-15T06:38:57.613Z,65.91
2019-06-15T06:40:00.208Z,65.92
2019-06-15T06:41:02.474Z,65.95
2019-06-15T06:42:05.083Z,65.92
2019-06-15T06:43:07.287Z,65.97
2019-06-15T06:44:09.897Z,65.76
2019-06-15T06:45:12.104Z,65.58
2019-06-15T06:46:14.711Z,65.90
2019-06-15T06:47:16.917Z,65.61
2019-06-15T06:48:19.540Z,65.49
2019-06-15T06:49:21.766Z,65.68
2019-06-15T06:50:24.363Z,65.66
2019-06-15T06:51:26.587Z,65.88
2019-06-15T06:52:29.157Z,65.79
2019-06-15T06:53:31.376Z,65.93
2019-06-15T06:54:34.020Z,65.54
2019-06-15T06:55:36.192Z,65.71
2019-06-15T06:56:38.789Z,65.71
2019-06-15T06:57:51.910Z,65.65
2019-06-15T06:58:45.276Z,66.00
2019-06-15T06:59:47.494Z,65.59
2019-06-15T07:00:50.087Z,65.98
2019-06-15T07:01:52.343Z,66.04
2019-06-15T07:02:54.933Z,65.80
2019-06-15T07:03:57.174Z,66.19
2019-06-15T07:04:59.757Z,66.29
2019-06-15T07:06:01.975Z,65.90
2019-06-15T07:07:04.555Z,66.12
2019-06-15T07:08:06.782Z,66.27
2019-06-15T07:09:09.386Z,65.98
2019-06-15T07:10:11.590Z,65.83
2019-06-15T07:11:14.193Z,66.28
2019-06-15T07:12:16.495Z,65.92
2019-06-15T07:13:19.120Z,65.82
2019-06-15T07:14:21.324Z,65.94
2019-06-15T07:15:23.927Z,65.94
2019-06-15T07:16:26.138Z,65.86
2019-06-15T07:17:28.743Z,66.23
2019-06-15T07:18:30.986Z,66.71
2019-06-15T07:19:33.590Z,66.44
2019-06-15T07:20:35.821Z,65.85
2019-06-15T07:21:38.398Z,65.89
2019-06-15T07:22:40.595Z,66.64
2019-06-15T07:23:43.285Z,66.71
2019-06-15T07:24:45.473Z,66.20
2019-06-15T07:25:48.073Z,66.15
2019-06-15T07:26:50.278Z,66.16
2019-06-15T07:28:07.153Z,65.89
2019-06-15T07:28:56.776Z,66.13
2019-06-15T07:29:59.380Z,66.24
2019-06-15T07:31:01.579Z,66.67
2019-06-15T07:32:04.181Z,67.50
2019-06-15T07:33:06.422Z,67.58
2019-06-15T07:34:09.149Z,67.69
2019-06-15T07:35:11.342Z,66.86
2019-06-15T07:36:13.946Z,66.85
2019-06-15T07:37:16.156Z,66.54
2019-06-15T07:38:18.784Z,67.50
2019-06-15T07:39:21.010Z,66.91
2019-06-15T07:40:23.603Z,66.76
2019-06-15T07:41:25.804Z,68.10
2019-06-15T07:42:28.389Z,67.97
2019-06-15T07:43:30.616Z,67.20
2019-06-15T07:44:33.219Z,67.16
2019-06-15T07:45:35.438Z,67.02
2019-06-15T07:46:38.043Z,67.85
2019-06-15T07:47:40.242Z,67.29
2019-06-15T07:48:42.858Z,67.76
2019-06-15T07:49:45.068Z,67.24
2019-06-15T07:50:47.662Z,68.06
2019-06-15T07:51:49.866Z,66.97
2019-06-15T07:52:52.460Z,66.70
2019-06-15T07:53:54.705Z,68.34
2019-06-15T07:54:57.290Z,68.72
2019-06-15T07:55:59.492Z,67.68
2019-06-15T07:57:02.098Z,67.28
2019-06-15T07:58:04.350Z,68.27
2019-06-15T07:59:06.929Z,69.54
2019-06-15T08:00:09.130Z,67.95
2019-06-15T08:01:11.718Z,68.20
2019-06-15T08:02:14.917Z,69.38
2019-06-15T08:03:17.592Z,68.36
2019-06-15T08:04:19.788Z,68.86
2019-06-15T08:05:22.402Z,68.29
2019-06-15T08:06:24.608Z,68.87
2019-06-15T08:07:27.213Z,67.69
2019-06-15T08:08:29.443Z,67.81
2019-06-15T08:09:32.060Z,67.61
2019-06-15T08:10:34.290Z,67.28
2019-06-15T08:11:36.881Z,67.75
2019-06-15T08:12:39.077Z,67.86
2019-06-15T08:13:41.658Z,67.49
2019-06-15T08:14:43.886Z,67.50
2019-06-15T08:15:46.493Z,67.09
2019-06-15T08:16:48.682Z,67.18
2019-06-15T08:17:51.269Z,68.44
2019-06-15T08:18:53.501Z,68.31
2019-06-15T08:19:56.031Z,67.86
2019-06-15T08:20:58.242Z,67.51
2019-06-15T08:22:00.879Z,67.47
2019-06-15T08:23:03.087Z,68.13
2019-06-15T08:24:05.731Z,68.78
2019-06-15T08:25:07.942Z,68.43
2019-06-15T08:26:10.549Z,69.48
2019-06-15T08:27:12.779Z,68.85
2019-06-15T08:28:15.374Z,68.91
2019-06-15T08:29:17.580Z,68.04
2019-06-15T08:30:20.211Z,68.67
2019-06-15T08:31:22.425Z,67.71
2019-06-15T08:32:25.005Z,67.64
2019-06-15T08:33:27.216Z,67.77
2019-06-15T08:34:30.052Z,67.85
2019-06-15T08:35:32.258Z,68.08
2019-06-15T08:36:34.857Z,67.86
2019-06-15T08:37:37.067Z,67.55
2019-06-15T08:38:39.664Z,68.21
2019-06-15T08:39:41.885Z,67.48
2019-06-15T08:40:44.486Z,67.48
2019-06-15T08:41:46.694Z,67.43
2019-06-15T08:42:49.308Z,67.12
2019-06-15T08:43:51.537Z,67.06
2019-06-15T08:44:54.135Z,68.06
2019-06-15T08:45:56.514Z,68.06
2019-06-15T08:46:59.550Z,67.73
2019-06-15T08:48:01.813Z,67.40
2019-06-15T08:49:04.407Z,68.04
2019-06-15T08:50:07.854Z,67.13
2019-06-15T08:51:11.431Z,66.91
2019-06-15T08:52:13.555Z,66.99
2019-06-15T08:53:16.144Z,66.86
2019-06-15T08:54:18.369Z,67.00
2019-06-15T08:55:21.028Z,67.04
2019-06-15T08:56:23.273Z,66.98
2019-06-15T08:57:25.876Z,67.10
2019-06-15T08:58:28.081Z,67.10
2019-06-15T08:59:30.684Z,67.28
2019-06-15T09:00:32.897Z,68.09
2019-06-15T09:01:35.525Z,67.67
2019-06-15T09:02:37.817Z,67.61
2019-06-15T09:03:40.440Z,67.69
2019-06-15T09:04:42.653Z,67.40
2019-06-15T09:05:45.247Z,68.85
2019-06-15T09:06:47.452Z,69.07
2019-06-15T09:07:50.059Z,68.54
2019-06-15T09:08:52.265Z,69.10
2019-06-15T09:09:54.906Z,68.25
2019-06-15T09:10:57.120Z,67.79
2019-06-15T09:11:59.704Z,67.52
2019-06-15T09:13:01.907Z,67.80
2019-06-15T09:14:04.511Z,69.37
2019-06-15T09:15:06.751Z,69.04
2019-06-15T09:16:09.355Z,69.00
2019-06-15T09:17:11.570Z,67.88
2019-06-15T09:18:14.155Z,69.07
2019-06-15T09:19:16.367Z,68.72
2019-06-15T09:20:18.997Z,68.60
2019-06-15T09:21:21.193Z,69.10
2019-06-15T09:22:23.789Z,68.26
2019-06-15T09:23:26.002Z,68.28
2019-06-15T09:24:28.607Z,67.92
2019-06-15T09:25:30.845Z,68.00
2019-06-15T09:26:33.447Z,67.88
2019-06-15T09:27:35.649Z,68.35
2019-06-15T09:28:38.260Z,68.81
2019-06-15T09:29:40.499Z,68.09
2019-06-15T09:30:43.144Z,68.77
2019-06-15T09:31:46.445Z,69.29
2019-06-15T09:32:49.129Z,68.80
2019-06-15T09:33:51.332Z,68.08
2019-06-15T09:34:53.939Z,68.97
2019-06-15T09:35:56.175Z,69.03
2019-06-15T09:36:58.792Z,69.60
2019-06-15T09:38:01.016Z,69.87
2019-06-15T09:39:03.702Z,68.43
2019-06-15T09:40:05.909Z,68.20
2019-06-15T09:41:08.655Z,67.67
2019-06-15T09:42:10.868Z,68.05
2019-06-15T09:43:13.464Z,67.66
2019-06-15T09:44:15.671Z,67.54
2019-06-15T09:45:18.330Z,68.11
2019-06-15T09:46:20.566Z,67.55
2019-06-15T09:47:23.167Z,67.88
2019-06-15T09:48:25.399Z,67.52
2019-06-15T09:49:28.002Z,67.26
2019-06-15T09:50:30.192Z,67.42
2019-06-15T09:51:32.812Z,67.31
2019-06-15T09:52:35.067Z,67.04
2019-06-15T09:53:40.026Z,68.03
2019-06-15T09:54:42.317Z,67.46
2019-06-15T09:55:44.908Z,67.35
2019-06-15T09:56:47.131Z,67.18
2019-06-15T09:57:49.737Z,67.35
2019-06-15T09:58:51.948Z,67.27
2019-06-15T09:59:54.540Z,67.20
2019-06-15T10:00:56.763Z,67.20
2019-06-15T10:01:59.390Z,67.33
2019-06-15T10:03:01.585Z,67.04
2019-06-15T10:04:04.178Z,67.20
2019-06-15T10:05:06.389Z,67.08
2019-06-15T10:06:11.676Z,67.15
2019-06-15T10:07:12.935Z,68.47
2019-06-15T10:08:15.567Z,69.05
2019-06-15T10:09:17.779Z,68.23
2019-06-15T10:10:20.382Z,67.87
2019-06-15T10:11:22.588Z,67.56
2019-06-15T10:12:25.208Z,68.57
2019-06-15T10:13:27.410Z,68.35
2019-06-15T10:14:30.021Z,67.91
2019-06-15T10:15:32.242Z,67.69
2019-06-15T10:16:34.834Z,67.72
2019-06-15T10:17:37.075Z,67.20
2019-06-15T10:18:39.676Z,68.29
2019-06-15T10:19:41.878Z,68.69
2019-06-15T10:20:44.461Z,69.39
2019-06-15T10:21:46.676Z,68.96
2019-06-15T10:22:49.300Z,68.63
2019-06-15T10:23:51.512Z,68.54
2019-06-15T10:24:54.142Z,68.49
2019-06-15T10:25:56.364Z,68.27
2019-06-15T10:26:58.967Z,68.41
2019-06-15T10:28:01.210Z,68.91
2019-06-15T10:29:03.833Z,68.42
2019-06-15T10:30:06.044Z,68.56
2019-06-15T10:31:08.643Z,68.41
2019-06-15T10:32:10.851Z,68.24
2019-06-15T10:33:13.476Z,68.38
2019-06-15T10:34:15.747Z,68.00
2019-06-15T10:35:18.364Z,68.06
2019-06-15T10:36:20.610Z,68.07
2019-06-15T10:37:23.212Z,68.11
2019-06-15T10:38:25.461Z,68.05
2019-06-15T10:39:28.061Z,68.03
2019-06-15T10:40:30.275Z,68.12
2019-06-15T10:41:32.864Z,68.09
2019-06-15T10:42:35.078Z,68.04
2019-06-15T10:43:37.687Z,67.98
2019-06-15T10:44:39.916Z,67.76
2019-06-15T10:45:42.522Z,67.92
2019-06-15T10:46:44.747Z,67.82
2019-06-15T10:47:47.348Z,67.96
2019-06-15T10:48:49.595Z,67.85
2019-06-15T10:49:52.196Z,67.82
2019-06-15T10:50:54.430Z,67.79
2019-06-15T10:51:57.043Z,67.84
2019-06-15T10:52:59.262Z,67.88
2019-06-15T10:54:01.877Z,67.63
2019-06-15T10:55:04.085Z,67.72
2019-06-15T10:56:06.686Z,67.66
2019-06-15T10:57:08.912Z,67.72
2019-06-15T10:58:11.532Z,67.86
2019-06-15T10:59:13.782Z,67.68
2019-06-15T11:00:16.355Z,67.59
2019-06-15T11:01:18.557Z,67.61
2019-06-15T11:02:21.162Z,67.59
2019-06-15T11:03:23.359Z,67.77
2019-06-15T11:04:25.971Z,67.54
2019-06-15T11:05:28.195Z,67.66
2019-06-15T11:06:30.805Z,67.51
2019-06-15T11:07:33.052Z,67.67
2019-06-15T11:08:35.659Z,67.60
2019-06-15T11:09:37.893Z,67.47
2019-06-15T11:10:40.492Z,67.56
2019-06-15T11:11:42.738Z,67.53
2019-06-15T11:12:46.923Z,67.89
2019-06-15T11:13:49.371Z,67.90
2019-06-15T11:14:51.995Z,67.78
2019-06-15T11:15:54.219Z,67.63
2019-06-15T11:16:56.815Z,67.78
2019-06-15T11:17:59.034Z,67.62
2019-06-15T11:19:01.667Z,67.61
2019-06-15T11:20:03.908Z,67.65
2019-06-15T11:21:06.582Z,67.68
2019-06-15T11:22:08.805Z,67.59
2019-06-15T11:23:11.407Z,67.54
2019-06-15T11:24:14.499Z,67.62
2019-06-15T11:25:18.011Z,67.57
2019-06-15T11:26:21.171Z,67.60
2019-06-15T11:27:24.643Z,67.57
2019-06-15T11:28:26.862Z,67.61
2019-06-15T11:29:29.448Z,67.69
2019-06-15T11:30:31.669Z,67.72
2019-06-15T11:31:34.316Z,67.69
2019-06-15T11:32:36.497Z,67.74
2019-06-15T11:33:39.102Z,67.72
2019-06-15T11:34:41.313Z,67.61
2019-06-15T11:35:43.922Z,67.54
2019-06-15T11:36:46.762Z,67.57
2019-06-15T11:37:49.295Z,67.52
2019-06-15T11:38:51.512Z,67.62
2019-06-15T11:39:54.124Z,67.67
2019-06-15T11:40:56.360Z,67.51
2019-06-15T11:41:58.975Z,67.57
2019-06-15T11:43:01.166Z,67.41
2019-06-15T11:44:03.908Z,67.23
2019-06-15T11:45:06.117Z,67.28
2019-06-15T11:46:08.731Z,67.28
2019-06-15T11:47:10.937Z,67.30
2019-06-15T11:48:13.552Z,67.27
2019-06-15T11:49:15.765Z,67.25
2019-06-15T11:50:18.356Z,67.20
2019-06-15T11:51:20.562Z,67.12
2019-06-15T11:52:23.168Z,67.15
2019-06-15T11:53:25.540Z,67.29
2019-06-15T11:54:28.153Z,67.59
2019-06-15T11:55:38.994Z,67.47
2019-06-15T11:56:34.626Z,67.24
2019-06-15T11:57:36.828Z,67.29
2019-06-15T11:58:39.480Z,67.33
2019-06-15T11:59:41.699Z,67.55
2019-06-15T12:00:44.292Z,67.41
2019-06-15T12:01:46.518Z,67.20
2019-06-15T12:02:49.116Z,67.70
2019-06-15T12:03:51.386Z,67.64
2019-06-15T12:04:58.461Z,67.53
2019-06-15T12:05:59.793Z,67.28
2019-06-15T12:07:02.440Z,67.41
2019-06-15T12:08:04.656Z,67.53
2019-06-15T12:09:07.279Z,67.40
2019-06-15T12:10:09.480Z,67.17
2019-06-15T12:11:12.099Z,67.41
2019-06-15T12:12:14.336Z,67.25
2019-06-15T12:13:16.913Z,67.54
2019-06-15T12:14:19.176Z,67.49
2019-06-15T12:15:21.787Z,67.56
2019-06-15T12:16:24.015Z,67.47
2019-06-15T12:17:26.623Z,67.08
2019-06-15T12:18:29.271Z,67.24
2019-06-15T12:19:31.885Z,67.54
2019-06-15T12:20:34.108Z,67.45
2019-06-15T12:21:36.721Z,67.21
2019-06-15T12:22:38.952Z,67.12
2019-06-15T12:23:41.541Z,66.88
2019-06-15T12:24:43.799Z,67.18
2019-06-15T12:25:46.388Z,67.12
2019-06-15T12:26:48.623Z,66.95
2019-06-15T12:27:51.218Z,66.93
2019-06-15T12:28:53.443Z,66.82
2019-06-15T12:29:56.090Z,66.71
2019-06-15T12:30:58.318Z,66.31
2019-06-15T12:32:00.928Z,66.49
2019-06-15T12:33:03.171Z,66.52
2019-06-15T12:34:05.747Z,66.45
2019-06-15T12:35:10.300Z,66.49
2019-06-15T12:36:19.181Z,66.21
2019-06-15T12:37:16.754Z,66.39
2019-06-15T12:38:19.358Z,66.17
2019-06-15T12:39:21.570Z,66.24
2019-06-15T12:40:24.188Z,66.02
2019-06-15T12:41:26.414Z,65.92
2019-06-15T12:42:29.014Z,66.02
2019-06-15T12:43:31.235Z,66.12
2019-06-15T12:44:33.830Z,65.92
2019-06-15T12:45:36.108Z,65.61
2019-06-15T12:46:38.684Z,65.82
2019-06-15T12:47:40.902Z,66.09
2019-06-15T12:48:43.526Z,66.02
2019-06-15T12:49:45.751Z,66.04
2019-06-15T12:50:48.392Z,66.40
2019-06-15T12:51:50.677Z,66.33
2019-06-15T12:52:53.208Z,66.44
2019-06-15T12:53:55.425Z,66.40
2019-06-15T12:54:58.022Z,66.27
2019-06-15T12:56:00.251Z,66.38
2019-06-15T12:57:02.855Z,66.24
2019-06-15T12:58:05.975Z,66.15
2019-06-15T12:59:08.575Z,66.08
2019-06-15T13:00:10.775Z,66.25
2019-06-15T13:01:13.358Z,66.27
2019-06-15T13:02:15.565Z,66.14
2019-06-15T13:03:18.192Z,66.12
2019-06-15T13:04:20.406Z,66.15
2019-06-15T13:05:23.555Z,66.29
2019-06-15T13:06:25.775Z,66.21
2019-06-15T13:07:28.371Z,66.17
2019-06-15T13:08:30.591Z,66.10
2019-06-15T13:09:33.394Z,66.18
2019-06-15T13:10:35.668Z,66.17
2019-06-15T13:11:38.459Z,66.21
2019-06-15T13:12:40.707Z,66.21
2019-06-15T13:13:43.311Z,66.20
2019-06-15T13:14:45.525Z,66.19
2019-06-15T13:15:48.138Z,66.18
2019-06-15T13:16:50.410Z,66.20
2019-06-15T13:17:52.987Z,66.25
2019-06-15T13:18:55.269Z,66.21
2019-06-15T13:19:57.882Z,66.16
2019-06-15T13:21:00.076Z,66.20
2019-06-15T13:22:06.224Z,66.24
2019-06-15T13:23:07.387Z,66.22
2019-06-15T13:24:09.988Z,66.25